Time;durP1;ratioP1;P1;durP2;ratioP2;P2;SDS_P1;SDS_P2;PMS_P1;PMS_P2;Temp;Humidity;BMP_temperature;BMP_pressure;BME280_temperature;BME280_humidity;BME280_pressure;Samples;Min_cycle;Max_cycle;Signal;HPM_P1;HPM_P2
2021/03/11 08:16:35;;;;;;;;;;;9.50;99.90;;;;;;4481300;31;19994;-77
2021/03/11 08:19:03;;;;;;;;;;;9.30;99.70;;;;;;4479536;32;20072;-78
2021/03/11 08:21:33;;;;;;;;;;;9.30;99.80;;;;;;4472723;32;20017;-77
2021/03/11 08:24:00;;;;;;;;;;;9.20;99.80;;;;;;4472693;32;20044;-79
2021/03/11 08:26:43;;;;;;;;;;;9.20;99.50;;;;;;4472661;32;20068;-79
2021/03/11 08:29:33;;;;;;;;;;;9.10;99.30;;;;;;4467578;32;20010;-79
2021/03/11 08:32:03;;;;;;;;;;;9.10;99.40;;;;;;4453672;32;19995;-79
2021/03/11 08:34:33;;;;;;;;;;;9.10;99.30;;;;;;4454202;32;20050;-79
2021/03/11 08:37:17;;;;;;;;;;;9.20;98.90;;;;;;4454115;32;20407;-80
2021/03/11 08:39:44;;;;;;;;;;;9.20;98.90;;;;;;4464935;32;20414;-79
2021/03/11 08:42:34;;;;;;;;;;;9.20;98.70;;;;;;4472483;32;20020;-80
2021/03/11 08:45:03;;;;;;;;;;;9.20;98.80;;;;;;4458904;32;19999;-80
2021/03/11 08:47:30;;;;;;;;;;;9.20;98.70;;;;;;4463776;32;20407;-80
2021/03/11 08:50:01;;;;;;;;;;;9.20;98.60;;;;;;4465065;32;20299;-79
2021/03/11 08:52:42;;;;;;;;;;;9.20;98.40;;;;;;4472760;32;20003;-80
2021/03/11 08:55:27;;;;;;;;;;;9.20;98.40;;;;;;4466057;32;20053;-80
2021/03/11 08:57:56;;;;;;;;;;;9.20;98.20;;;;;;4453268;32;20459;-80
2021/03/11 09:00:46;;;;;;;;;;;9.30;98.20;;;;;;4471856;32;20007;-80
2021/03/11 09:03:32;;;;;;;;;;;9.30;98.20;;;;;;4464795;32;20459;-80
2021/03/11 09:06:04;;;;;;;;;;;9.40;98.20;;;;;;4472532;32;20007;-80
2021/03/11 09:08:54;;;;;;;;;;;9.50;98.20;;;;;;4472637;32;20010;-79
2021/03/11 09:11:26;;;;;;;;;;;9.50;97.90;;;;;;4465372;32;19991;-79
2021/03/11 09:13:55;;;;;;;;;;;9.60;97.80;;;;;;4471791;32;20028;-80
2021/03/11 09:16:25;;;;;;;;;;;9.70;97.80;;;;;;4464239;32;20027;-80
2021/03/11 09:18:58;;;;;;;;;;;9.70;97.80;;;;;;4471864;32;20041;-81
2021/03/11 09:21:34;;;;;;;;;;;9.80;97.70;;;;;;4451446;32;20009;-81
2021/03/11 09:24:14;;;;;;;;;;;9.90;97.70;;;;;;4472335;32;20006;-81
2021/03/11 09:26:41;;;;;;;;;;;9.90;97.40;;;;;;4460736;32;20451;-80
2021/03/11 09:29:11;;;;;;;;;;;10.00;97.60;;;;;;4453846;32;20459;-81
2021/03/11 09:31:42;;;;;;;;;;;10.00;97.40;;;;;;4461220;32;20458;-81
2021/03/11 09:34:18;;;;;;;;;;;10.10;97.30;;;;;;4453721;32;20070;-80
2021/03/11 09:36:47;;;;;;;;;;;10.10;97.20;;;;;;4461459;32;20017;-82
2021/03/11 09:39:17;;;;;;;;;;;10.20;97.20;;;;;;4454043;32;19994;-83
2021/03/11 09:41:47;;;;;;;;;;;10.20;97.00;;;;;;4460781;32;20475;-81
2021/03/11 09:44:23;;;;;;;;;;;10.20;96.80;;;;;;4454301;32;20020;-81
2021/03/11 09:46:55;;;;;;;;;;;10.30;96.70;;;;;;4461191;32;20046;-83
2021/03/11 09:49:25;;;;;;;;;;;10.30;96.80;;;;;;4453542;32;20472;-81
2021/03/11 09:52:02;;;;;;;;;;;10.40;96.40;;;;;;4460938;32;20002;-82
2021/03/11 09:54:31;;;;;;;;;;;10.40;96.20;;;;;;4453283;32;21735;-83
2021/03/11 09:57:00;;;;;;;;;;;10.50;96.10;;;;;;4460466;32;20018;-82
2021/03/11 09:59:26;;;;;;;;;;;10.50;95.90;;;;;;4439509;32;42423;-81
2021/03/11 10:01:53;;;;;;;;;;;10.60;95.30;;;;;;4452127;32;38064;-81
2021/03/11 10:04:25;;;;;;;;;;;10.60;95.30;;;;;;4459896;32;31325;-82
2021/03/11 10:06:52;;;;;;;;;;;10.60;95.30;;;;;;4451674;32;28321;-84
2021/03/11 10:09:19;;;;;;;;;;;10.70;94.80;;;;;;4452231;32;37506;-81
2021/03/11 10:11:46;;;;;;;;;;;10.70;94.40;;;;;;4460063;32;37523;-82
2021/03/11 10:14:17;;;;;;;;;;;10.70;94.50;;;;;;4459876;32;33724;-81
2021/03/11 10:16:45;;;;;;;;;;;10.80;94.50;;;;;;4453727;32;20011;-82
2021/03/11 10:19:16;;;;;;;;;;;10.80;94.40;;;;;;4446899;32;20009;-82
2021/03/11 10:21:48;;;;;;;;;;;10.90;94.10;;;;;;4460668;32;20075;-81
2021/03/11 10:24:30;;;;;;;;;;;10.90;94.20;;;;;;4453692;32;20059;-82
2021/03/11 10:27:01;;;;;;;;;;;11.00;94.10;;;;;;4451500;32;20321;-81
2021/03/11 10:29:29;;;;;;;;;;;11.00;93.60;;;;;;4460848;32;20117;-80
2021/03/11 10:32:00;;;;;;;;;;;11.00;93.60;;;;;;4452488;32;20020;-82
2021/03/11 10:34:30;;;;;;;;;;;11.00;92.20;;;;;;4453461;32;20005;-82
2021/03/11 10:37:00;;;;;;;;;;;11.10;92.70;;;;;;4453030;32;20015;-81
2021/03/11 10:39:28;;;;;;;;;;;11.10;91.60;;;;;;4439837;32;20054;-82
2021/03/11 10:42:07;;;;;;;;;;;11.10;92.00;;;;;;4451468;32;20022;-83
2021/03/11 10:44:39;;;;;;;;;;;11.10;91.60;;;;;;4440318;32;20010;-82
2021/03/11 10:47:10;;;;;;;;;;;11.20;92.10;;;;;;4452834;32;20038;-83
2021/03/11 10:49:39;;;;;;;;;;;11.20;92.50;;;;;;4451522;32;20015;-82
2021/03/11 10:52:06;;;;;;;;;;;11.40;92.60;;;;;;4451455;32;20049;-81
2021/03/11 10:54:32;;;;;;;;;;;11.40;90.80;;;;;;4452328;32;20004;-81
2021/03/11 10:57:19;;;;;;;;;;;11.40;90.90;;;;;;4452341;32;20003;-82
2021/03/11 10:59:55;;;;;;;;;;;11.40;90.80;;;;;;4460306;32;20003;-82
2021/03/11 11:19:46;;;;;;;;;;;11.30;87.80;;;;;;4465493;31;20002;-80
2021/03/11 11:22:14;;;;;;;;;;;11.30;88.40;;;;;;4455751;32;32627;-80
2021/03/11 11:24:40;;;;;;;;;;;11.40;89.70;;;;;;4443022;32;42282;-80
2021/03/11 11:27:09;;;;;;;;;;;11.50;89.40;;;;;;4456005;32;36610;-80
2021/03/11 11:29:36;;;;;;;;;;;11.50;89.90;;;;;;4456251;32;24914;-80
2021/03/11 11:32:05;;;;;;;;;;;11.60;90.10;;;;;;4456941;32;20513;-80
2021/03/11 11:34:35;;;;;;;;;;;11.50;90.20;;;;;;4464530;32;20165;-79
2021/03/11 11:37:01;;;;;;;;;;;11.40;90.90;;;;;;4443116;32;35296;-80
2021/03/11 11:39:28;;;;;;;;;;;11.30;91.20;;;;;;4463276;32;25413;-80
2021/03/11 11:42:01;;;;;;;;;;;11.20;92.10;;;;;;4464426;32;20059;-80
2021/03/11 11:44:27;;;;;;;;;;;11.10;91.90;;;;;;4449293;32;27652;-80
2021/03/11 11:46:56;;;;;;;;;;;11.20;92.30;;;;;;4464649;32;30888;-81
2021/03/11 11:49:26;;;;;;;;;;;11.20;92.30;;;;;;4451088;32;20018;-81
2021/03/11 11:51:52;;;;;;;;;;;11.30;92.30;;;;;;4463114;32;30535;-80
2021/03/11 11:54:19;;;;;;;;;;;11.30;92.40;;;;;;4464395;32;20030;-81
2021/03/11 11:56:46;;;;;;;;;;;11.40;92.20;;;;;;4464348;32;20043;-80
2021/03/11 11:59:12;;;;;;;;;;;11.50;92.30;;;;;;4450772;32;20011;-80
2021/03/11 12:01:42;;;;;;;;;;;11.60;92.30;;;;;;4451076;32;20028;-80
2021/03/11 12:04:13;;;;;;;;;;;11.60;92.20;;;;;;4464625;32;27095;-80
2021/03/11 12:06:42;;;;;;;;;;;11.60;92.20;;;;;;4463413;32;20082;-80
2021/03/11 12:09:09;;;;;;;;;;;11.70;92.20;;;;;;4463998;32;40993;-80
2021/03/11 12:11:36;;;;;;;;;;;11.60;91.50;;;;;;4462868;32;35118;-80
2021/03/11 12:14:05;;;;;;;;;;;11.60;91.20;;;;;;4463493;32;30587;-80
2021/03/11 12:16:32;;;;;;;;;;;11.70;90.50;;;;;;4463403;32;19999;-80
2021/03/11 12:19:02;;;;;;;;;;;11.60;89.60;;;;;;4462670;32;36608;-80
2021/03/11 12:21:29;;;;;;;;;;;11.70;90.20;;;;;;4462654;32;37785;-80
2021/03/11 12:23:56;;;;;;;;;;;11.70;90.30;;;;;;4463759;32;36996;-80
2021/03/11 12:26:23;;;;;;;;;;;11.80;90.40;;;;;;4464153;32;20062;-80
2021/03/11 12:28:49;;;;;;;;;;;11.80;90.00;;;;;;4449726;32;33890;-80
2021/03/11 12:31:16;;;;;;;;;;;11.80;90.30;;;;;;4452714;32;20035;-80
2021/03/11 12:33:49;;;;;;;;;;;11.90;90.70;;;;;;4452509;32;31886;-80
2021/03/11 12:36:16;;;;;;;;;;;11.90;90.00;;;;;;4439710;32;33511;-80
2021/03/11 12:38:46;;;;;;;;;;;12.00;89.70;;;;;;4454614;32;20040;-80
2021/03/11 12:41:15;;;;;;;;;;;12.10;90.40;;;;;;4453011;32;20026;-80
2021/03/11 12:43:45;;;;;;;;;;;12.10;87.70;;;;;;4440388;32;20059;-83
2021/03/11 12:46:12;;;;;;;;;;;12.10;87.80;;;;;;4438343;32;20011;-83
2021/03/11 12:48:39;;;;;;;;;;;12.10;86.80;;;;;;4436647;32;31440;-84
2021/03/11 12:51:06;;;;;;;;;;;12.20;87.10;;;;;;4437635;32;20006;-83
2021/03/11 12:53:33;;;;;;;;;;;12.30;87.50;;;;;;4436918;32;35912;-82
2021/03/11 12:56:00;;;;;;;;;;;12.30;85.90;;;;;;4439002;32;20078;-82
2021/03/11 12:58:27;;;;;;;;;;;12.30;86.20;;;;;;4438402;32;20010;-80
2021/03/11 13:00:53;;;;;;;;;;;12.30;85.90;;;;;;4438505;32;20078;-81
2021/03/11 13:03:20;;;;;;;;;;;12.30;87.20;;;;;;4437714;32;24251;-82
2021/03/11 13:05:48;;;;;;;;;;;12.30;86.90;;;;;;4436879;32;35133;-82
2021/03/11 13:08:15;;;;;;;;;;;12.30;86.50;;;;;;4437634;32;39460;-81
2021/03/11 13:10:42;;;;;;;;;;;12.30;87.40;;;;;;4436414;32;33422;-82
2021/03/11 13:13:11;;;;;;;;;;;12.20;86.30;;;;;;4423262;32;40864;-82
2021/03/11 13:15:38;;;;;;;;;;;12.10;87.60;;;;;;4436693;32;26122;-82
2021/03/11 13:18:05;;;;;;;;;;;12.20;86.70;;;;;;4436668;32;23391;-82
2021/03/11 13:20:32;;;;;;;;;;;12.10;86.20;;;;;;4436526;32;31431;-82
2021/03/11 13:22:59;;;;;;;;;;;12.00;86.20;;;;;;4437329;32;20067;-81
2021/03/11 14:45:22;;;;;;;;;;;11.50;83.00;;;;;;4479704;31;20010;-77
2021/03/11 14:47:49;;;;;;;;;;;11.50;83.60;;;;;;4478779;32;20016;-78
2021/03/11 14:50:16;;;;;;;;;;;11.50;84.70;;;;;;4481456;32;20058;-78
2021/03/11 14:52:43;;;;;;;;;;;11.60;84.50;;;;;;4479865;32;20044;-78
2021/03/11 14:55:12;;;;;;;;;;;11.60;83.80;;;;;;4481590;32;20425;-78
2021/03/11 14:57:39;;;;;;;;;;;11.60;85.50;;;;;;4480242;32;20046;-78
2021/03/11 15:00:07;;;;;;;;;;;11.60;85.00;;;;;;4481771;32;20066;-78
2021/03/11 15:02:36;;;;;;;;;;;11.60;84.80;;;;;;4481070;32;20016;-79
2021/03/11 15:05:03;;;;;;;;;;;11.70;84.50;;;;;;4481227;32;20014;-78
2021/03/11 15:07:30;;;;;;;;;;;11.80;84.60;;;;;;4478444;32;20024;-77
2021/03/11 15:09:57;;;;;;;;;;;11.80;84.10;;;;;;4480340;32;20070;-78
2021/03/11 15:12:23;;;;;;;;;;;11.90;84.30;;;;;;4480369;32;20030;-77
2021/03/11 15:14:50;;;;;;;;;;;11.90;82.90;;;;;;4479672;32;20047;-78
2021/03/11 15:17:17;;;;;;;;;;;11.80;82.00;;;;;;4467406;32;20129;-78
2021/03/11 15:19:44;;;;;;;;;;;11.90;82.30;;;;;;4480134;32;19994;-77
2021/03/11 15:22:10;;;;;;;;;;;11.90;83.10;;;;;;4481289;32;20021;-78
2021/03/11 15:24:37;;;;;;;;;;;11.90;82.90;;;;;;4481360;32;20371;-78
2021/03/11 15:27:07;;;;;;;;;;;11.90;82.10;;;;;;4467101;32;20012;-78
2021/03/11 15:29:34;;;;;;;;;;;11.90;83.40;;;;;;4480147;32;20057;-78
2021/03/11 15:32:06;;;;;;;;;;;11.90;82.70;;;;;;4480998;32;20002;-78
2021/03/11 15:34:36;;;;;;;;;;;11.90;82.50;;;;;;4479876;32;20010;-78
2021/03/11 15:37:05;;;;;;;;;;;11.80;81.10;;;;;;4480783;32;19998;-77
2021/03/11 15:39:35;;;;;;;;;;;11.80;82.10;;;;;;4481010;32;20045;-78
2021/03/11 15:42:02;;;;;;;;;;;11.80;82.00;;;;;;4479383;32;20073;-78
2021/03/11 15:44:29;;;;;;;;;;;11.70;82.40;;;;;;4479737;32;20016;-78
2021/03/11 15:46:55;;;;;;;;;;;11.70;82.00;;;;;;4479600;32;20006;-79
2021/03/11 15:49:22;;;;;;;;;;;11.70;82.70;;;;;;4480827;32;20054;-78
2021/03/11 15:51:49;;;;;;;;;;;11.70;82.10;;;;;;4479399;32;20022;-78
2021/03/11 15:54:15;;;;;;;;;;;11.70;82.90;;;;;;4479766;32;20049;-78
2021/03/11 15:56:45;;;;;;;;;;;11.70;83.00;;;;;;4469518;32;20010;-77
2021/03/11 15:59:15;;;;;;;;;;;11.70;82.40;;;;;;4468986;32;20074;-79
2021/03/11 16:01:41;;;;;;;;;;;11.70;81.90;;;;;;4470297;32;20009;-78
2021/03/11 16:04:13;;;;;;;;;;;11.60;82.00;;;;;;4469955;32;20019;-78
2021/03/11 16:06:42;;;;;;;;;;;11.60;82.40;;;;;;4468483;32;19999;-78
2021/03/11 16:09:08;;;;;;;;;;;11.60;82.30;;;;;;4468653;32;20021;-78
2021/03/11 16:11:35;;;;;;;;;;;11.60;82.70;;;;;;4456202;32;20000;-78
2021/03/11 16:14:02;;;;;;;;;;;11.60;82.30;;;;;;4470104;32;20013;-78
2021/03/11 16:16:32;;;;;;;;;;;11.60;82.50;;;;;;4468906;32;20003;-79
2021/03/11 16:18:59;;;;;;;;;;;11.60;82.50;;;;;;4468780;32;20012;-79
2021/03/11 16:21:30;;;;;;;;;;;11.60;81.80;;;;;;4469161;32;20002;-78
2021/03/11 16:24:03;;;;;;;;;;;11.60;81.80;;;;;;4455035;32;20081;-78
2021/03/11 16:26:29;;;;;;;;;;;11.50;82.00;;;;;;4468712;32;20007;-78
2021/03/11 16:28:59;;;;;;;;;;;11.50;82.40;;;;;;4455973;32;20055;-78
2021/03/11 16:31:25;;;;;;;;;;;11.50;82.40;;;;;;4468290;32;20007;-79
2021/03/11 16:33:54;;;;;;;;;;;11.50;83.10;;;;;;4467825;32;20000;-78
2021/03/11 16:36:23;;;;;;;;;;;11.50;82.10;;;;;;4468732;32;20054;-78
2021/03/11 16:38:51;;;;;;;;;;;11.50;83.10;;;;;;4467942;32;35289;-78
2021/03/11 16:41:21;;;;;;;;;;;11.50;82.60;;;;;;4468356;32;20466;-78
2021/03/11 16:43:47;;;;;;;;;;;11.50;82.70;;;;;;4467840;32;35121;-78
2021/03/11 16:46:14;;;;;;;;;;;11.40;82.50;;;;;;4467917;32;41807;-78
2021/03/11 16:48:44;;;;;;;;;;;11.40;82.50;;;;;;4467023;32;35347;-78
2021/03/11 16:51:10;;;;;;;;;;;11.30;82.30;;;;;;4467360;32;42413;-78
2021/03/11 16:53:37;;;;;;;;;;;11.30;81.90;;;;;;4467333;32;37344;-78
2021/03/11 16:56:03;;;;;;;;;;;11.30;82.60;;;;;;4467070;32;26430;-78
2021/03/11 16:58:30;;;;;;;;;;;11.30;82.50;;;;;;4468147;32;20042;-78
2021/03/11 17:00:57;;;;;;;;;;;11.30;82.10;;;;;;4467178;32;36322;-78
2021/03/11 17:03:23;;;;;;;;;;;11.20;82.10;;;;;;4466456;32;40737;-78
2021/03/11 17:06:04;;;;;;;;;;;11.20;82.30;;;;;;4468746;32;29158;-79
2021/03/11 17:08:30;;;;;;;;;;;11.20;82.70;;;;;;4466197;32;37760;-79
2021/03/11 17:10:57;;;;;;;;;;;11.20;81.20;;;;;;4466752;32;38727;-79
2021/03/11 17:13:23;;;;;;;;;;;11.10;81.60;;;;;;4468022;32;37506;-78
2021/03/11 17:15:50;;;;;;;;;;;11.10;80.40;;;;;;4467192;32;39923;-79
2021/03/11 17:18:17;;;;;;;;;;;11.10;80.80;;;;;;4466937;32;23106;-78
2021/03/11 17:20:44;;;;;;;;;;;11.10;81.20;;;;;;4468509;32;19999;-78
2021/03/11 17:23:10;;;;;;;;;;;11.10;81.40;;;;;;4466474;32;34232;-78
2021/03/11 17:25:37;;;;;;;;;;;11.10;80.20;;;;;;4466913;32;32986;-79
2021/03/11 17:28:03;;;;;;;;;;;11.00;79.80;;;;;;4466235;32;41927;-79
2021/03/11 17:30:30;;;;;;;;;;;11.00;80.90;;;;;;4467899;32;41481;-78
2021/03/11 17:33:00;;;;;;;;;;;11.00;81.40;;;;;;4467109;32;20060;-77
2021/03/11 17:35:26;;;;;;;;;;;11.00;81.30;;;;;;4453168;32;40958;-78
2021/03/11 17:37:53;;;;;;;;;;;11.00;80.90;;;;;;4467338;32;20018;-78
2021/03/11 17:40:20;;;;;;;;;;;11.00;80.20;;;;;;4467631;32;20042;-78
2021/03/11 17:42:47;;;;;;;;;;;10.90;81.30;;;;;;4467104;32;20109;-79
2021/03/11 17:45:19;;;;;;;;;;;10.90;81.00;;;;;;4466337;32;28634;-79
2021/03/11 17:47:45;;;;;;;;;;;10.80;81.30;;;;;;4466762;32;24189;-79
2021/03/11 17:50:13;;;;;;;;;;;10.90;81.50;;;;;;4467390;32;37587;-78
2021/03/11 17:52:39;;;;;;;;;;;10.90;81.60;;;;;;4454507;32;20002;-78
2021/03/11 17:55:07;;;;;;;;;;;10.90;81.40;;;;;;4468168;32;20089;-78
2021/03/11 17:57:34;;;;;;;;;;;10.90;81.40;;;;;;4467530;32;20007;-79
2021/03/11 18:00:01;;;;;;;;;;;10.90;81.30;;;;;;4453870;32;19990;-79
2021/03/11 18:02:30;;;;;;;;;;;10.80;81.20;;;;;;4467184;32;20002;-79
2021/03/11 18:05:12;;;;;;;;;;;10.70;81.40;;;;;;4467336;32;19994;-78
2021/03/11 18:07:39;;;;;;;;;;;10.70;81.00;;;;;;4452901;32;35398;-78
2021/03/11 18:10:06;;;;;;;;;;;10.70;81.50;;;;;;4466387;32;32832;-78
2021/03/11 18:12:33;;;;;;;;;;;10.70;81.90;;;;;;4467406;32;31648;-79
2021/03/11 18:15:01;;;;;;;;;;;10.60;81.70;;;;;;4466142;32;34882;-79
2021/03/11 18:17:28;;;;;;;;;;;10.60;81.60;;;;;;4467874;32;20422;-78
2021/03/11 18:19:58;;;;;;;;;;;10.60;81.70;;;;;;4466562;32;21721;-78
2021/03/11 18:22:25;;;;;;;;;;;10.60;81.80;;;;;;4465963;32;24039;-78
2021/03/11 18:24:52;;;;;;;;;;;10.50;81.70;;;;;;4452557;32;38650;-78
2021/03/11 18:27:18;;;;;;;;;;;10.60;81.90;;;;;;4465597;32;40232;-78
2021/03/11 18:29:47;;;;;;;;;;;10.50;81.70;;;;;;4466417;32;25331;-81
2021/03/11 18:32:14;;;;;;;;;;;10.50;81.90;;;;;;4467167;32;28391;-78
2021/03/11 18:34:41;;;;;;;;;;;10.50;82.00;;;;;;4452944;32;40191;-78
2021/03/11 18:37:22;;;;;;;;;;;10.50;81.70;;;;;;4466622;32;26719;-78
2021/03/11 18:39:48;;;;;;;;;;;10.40;82.00;;;;;;4452983;32;27985;-78
2021/03/11 18:42:15;;;;;;;;;;;10.40;82.20;;;;;;4465471;32;38829;-78
2021/03/11 18:44:42;;;;;;;;;;;10.40;82.10;;;;;;4465476;32;40785;-78
2021/03/11 18:47:12;;;;;;;;;;;10.30;82.10;;;;;;4454156;32;20471;-78
2021/03/11 18:49:39;;;;;;;;;;;10.30;82.40;;;;;;4452880;32;23517;-78
2021/03/11 18:52:09;;;;;;;;;;;10.30;82.50;;;;;;4453473;32;20419;-78
2021/03/11 18:54:38;;;;;;;;;;;10.30;81.90;;;;;;4467304;32;20020;-78
2021/03/11 18:57:07;;;;;;;;;;;10.20;82.10;;;;;;4467276;32;29451;-77
2021/03/11 18:59:37;;;;;;;;;;;10.20;82.10;;;;;;4467087;32;32864;-77
2021/03/11 19:02:04;;;;;;;;;;;10.20;82.20;;;;;;4737440;26;36260;-77
2021/03/11 19:04:30;;;;;;;;;;;10.30;82.10;;;;;;4405209;32;38936;-78
2021/03/11 19:06:57;;;;;;;;;;;10.30;81.80;;;;;;4391365;32;34310;-77
2021/03/11 19:09:24;;;;;;;;;;;10.20;81.80;;;;;;4392674;32;20004;-77
2021/03/11 19:11:54;;;;;;;;;;;10.20;82.30;;;;;;4406265;32;20007;-77
2021/03/11 19:14:21;;;;;;;;;;;10.20;82.10;;;;;;4391765;32;41307;-77
2021/03/11 19:16:50;;;;;;;;;;;10.20;82.10;;;;;;4392529;32;20000;-78
2021/03/11 19:19:19;;;;;;;;;;;10.20;82.10;;;;;;4380313;32;19992;-77
2021/03/11 19:21:49;;;;;;;;;;;10.10;82.00;;;;;;4391415;32;38184;-78
2021/03/11 19:24:16;;;;;;;;;;;10.20;82.20;;;;;;4391814;32;30973;-78
2021/03/11 19:26:42;;;;;;;;;;;10.10;82.00;;;;;;4378734;32;37556;-78
2021/03/11 19:29:09;;;;;;;;;;;10.10;82.00;;;;;;4391591;32;37589;-78
2021/03/11 19:31:38;;;;;;;;;;;10.10;81.40;;;;;;4407847;32;20000;-77
2021/03/11 19:34:05;;;;;;;;;;;10.10;81.80;;;;;;4382368;32;20412;-78
2021/03/11 19:36:32;;;;;;;;;;;10.00;81.80;;;;;;4408260;32;30500;-78
2021/03/11 19:38:58;;;;;;;;;;;10.00;82.00;;;;;;4381349;32;35734;-77
2021/03/11 19:41:28;;;;;;;;;;;10.10;82.00;;;;;;4381525;32;28509;-78
2021/03/11 19:43:54;;;;;;;;;;;10.00;82.30;;;;;;4408742;32;20012;-78
2021/03/11 19:46:21;;;;;;;;;;;10.00;81.40;;;;;;4395091;32;20008;-78
2021/03/11 19:48:50;;;;;;;;;;;10.00;81.50;;;;;;4382737;32;20035;-78
2021/03/11 19:51:17;;;;;;;;;;;10.00;81.60;;;;;;4395195;32;20026;-78
2021/03/11 19:53:44;;;;;;;;;;;10.00;81.70;;;;;;4394664;32;20011;-78
2021/03/11 19:56:11;;;;;;;;;;;10.00;81.80;;;;;;4394436;32;20010;-78
2021/03/11 19:58:39;;;;;;;;;;;10.00;81.40;;;;;;4394675;32;20011;-78
2021/03/11 20:01:06;;;;;;;;;;;9.90;81.20;;;;;;4408381;32;20077;-78
2021/03/11 20:03:36;;;;;;;;;;;9.90;81.20;;;;;;4382401;32;19997;-78
2021/03/11 20:06:02;;;;;;;;;;;10.00;81.40;;;;;;4393968;32;34600;-78
2021/03/11 20:08:33;;;;;;;;;;;10.00;81.20;;;;;;4394917;32;20065;-78
2021/03/11 20:11:00;;;;;;;;;;;10.00;81.30;;;;;;4394367;32;20034;-78
2021/03/11 20:13:30;;;;;;;;;;;10.00;81.30;;;;;;4407688;32;36600;-77
2021/03/11 20:15:57;;;;;;;;;;;10.00;81.40;;;;;;4407714;32;29992;-78
2021/03/11 20:18:24;;;;;;;;;;;10.00;81.70;;;;;;4407453;32;39750;-77
2021/03/11 20:20:51;;;;;;;;;;;9.90;81.80;;;;;;4394335;32;20020;-78
2021/03/11 20:23:18;;;;;;;;;;;9.80;82.20;;;;;;4381209;32;32800;-78
2021/03/11 20:25:45;;;;;;;;;;;9.70;82.50;;;;;;4407815;32;20007;-78
2021/03/11 20:28:12;;;;;;;;;;;9.60;82.40;;;;;;4381060;32;29418;-77
2021/03/11 20:30:39;;;;;;;;;;;9.50;82.80;;;;;;4393119;32;42237;-78
2021/03/11 20:33:06;;;;;;;;;;;9.40;83.10;;;;;;4381190;32;25475;-77
2021/03/11 20:35:33;;;;;;;;;;;9.30;83.40;;;;;;4382145;32;20439;-78
2021/03/11 20:38:00;;;;;;;;;;;9.30;83.30;;;;;;4393783;32;21152;-78
2021/03/11 20:40:28;;;;;;;;;;;9.20;83.20;;;;;;4380409;32;45553;-77
2021/03/11 20:42:54;;;;;;;;;;;9.20;83.30;;;;;;4381521;32;20035;-78
2021/03/11 20:45:22;;;;;;;;;;;9.20;83.30;;;;;;4407906;32;20030;-78
2021/03/11 20:47:49;;;;;;;;;;;9.10;83.50;;;;;;4394144;32;19995;-78
2021/03/11 20:50:19;;;;;;;;;;;9.00;83.40;;;;;;4394249;32;19992;-78
2021/03/11 20:52:49;;;;;;;;;;;9.00;83.60;;;;;;4381091;32;20091;-77
2021/03/11 20:55:16;;;;;;;;;;;9.00;83.80;;;;;;4392614;32;45921;-77
2021/03/11 20:57:43;;;;;;;;;;;9.00;83.70;;;;;;4406445;32;37791;-77
2021/03/11 21:00:12;;;;;;;;;;;8.90;83.90;;;;;;4393225;32;20405;-78
2021/03/11 21:02:41;;;;;;;;;;;8.90;84.00;;;;;;4380588;32;25881;-78
2021/03/11 21:05:08;;;;;;;;;;;9.00;84.00;;;;;;4393169;32;28359;-78
2021/03/11 21:07:38;;;;;;;;;;;8.90;83.70;;;;;;4393414;32;20008;-78
2021/03/11 21:10:07;;;;;;;;;;;8.90;84.00;;;;;;4393727;32;20038;-78
2021/03/11 21:12:34;;;;;;;;;;;8.80;83.90;;;;;;4393425;32;20006;-78
2021/03/11 21:15:07;;;;;;;;;;;8.80;84.00;;;;;;4393475;32;20475;-78
2021/03/11 21:17:33;;;;;;;;;;;8.70;84.00;;;;;;4392935;32;26286;-78
2021/03/11 21:20:03;;;;;;;;;;;8.70;84.00;;;;;;4380117;32;34602;-78
2021/03/11 21:22:29;;;;;;;;;;;8.70;84.30;;;;;;4392578;32;32300;-78
2021/03/11 21:24:56;;;;;;;;;;;8.60;84.30;;;;;;4380330;32;32880;-78
2021/03/11 21:27:25;;;;;;;;;;;8.60;84.30;;;;;;4407601;32;20012;-78
2021/03/11 21:29:51;;;;;;;;;;;8.60;84.40;;;;;;4392677;32;36559;-78
2021/03/11 21:32:19;;;;;;;;;;;8.60;84.40;;;;;;4392809;32;36913;-78
2021/03/11 21:34:48;;;;;;;;;;;8.60;84.40;;;;;;4407071;32;20008;-77
2021/03/11 21:37:15;;;;;;;;;;;8.70;84.30;;;;;;4380033;32;31969;-77
2021/03/11 21:39:53;;;;;;;;;;;8.60;84.30;;;;;;4393853;32;37958;-78
2021/03/11 21:42:24;;;;;;;;;;;8.70;84.30;;;;;;4394214;32;20004;-78
2021/03/11 21:45:06;;;;;;;;;;;8.70;84.20;;;;;;4405491;32;41030;-78
2021/03/11 21:47:34;;;;;;;;;;;8.70;84.20;;;;;;4380730;32;20045;-78
2021/03/11 21:50:01;;;;;;;;;;;8.70;84.10;;;;;;4380128;32;21912;-78
2021/03/11 21:52:27;;;;;;;;;;;8.60;84.30;;;;;;4406395;32;20004;-78
2021/03/11 21:54:54;;;;;;;;;;;8.70;84.30;;;;;;4392665;32;21695;-77
2021/03/11 21:57:21;;;;;;;;;;;8.60;84.20;;;;;;4380233;32;22861;-78
2021/03/11 21:59:51;;;;;;;;;;;8.60;84.20;;;;;;4379439;32;37606;-78
2021/03/11 22:02:21;;;;;;;;;;;8.60;84.20;;;;;;4389513;32;31473;-77
2021/03/11 22:04:50;;;;;;;;;;;8.70;84.30;;;;;;4389751;32;29488;-78
2021/03/11 22:07:17;;;;;;;;;;;8.60;84.30;;;;;;4389209;32;35083;-77
2021/03/11 22:09:44;;;;;;;;;;;8.60;84.40;;;;;;4390025;32;25297;-78
2021/03/11 22:12:10;;;;;;;;;;;8.60;84.50;;;;;;4376815;32;38082;-78
2021/03/11 22:14:40;;;;;;;;;;;8.60;84.60;;;;;;4391178;32;26873;-78
2021/03/11 22:17:07;;;;;;;;;;;8.50;84.60;;;;;;4389785;32;26859;-78
2021/03/11 22:19:33;;;;;;;;;;;8.50;84.60;;;;;;4390017;32;21749;-77
2021/03/11 22:22:03;;;;;;;;;;;8.50;84.70;;;;;;4388915;32;39759;-78
2021/03/11 22:24:32;;;;;;;;;;;8.50;84.70;;;;;;4389357;32;34861;-78
2021/03/11 22:26:59;;;;;;;;;;;8.50;84.80;;;;;;4389610;32;33137;-78
2021/03/11 22:29:26;;;;;;;;;;;8.50;84.80;;;;;;4389476;32;33864;-78
2021/03/11 22:31:52;;;;;;;;;;;8.50;84.90;;;;;;4390665;32;34597;-78
2021/03/11 22:34:19;;;;;;;;;;;8.50;84.90;;;;;;4390823;32;20008;-78
2021/03/11 22:36:46;;;;;;;;;;;8.50;84.90;;;;;;4390581;32;25233;-78
2021/03/11 22:39:12;;;;;;;;;;;8.50;84.90;;;;;;4389310;32;38806;-79
2021/03/11 22:41:39;;;;;;;;;;;8.50;84.90;;;;;;4389285;32;38593;-78
2021/03/11 22:44:06;;;;;;;;;;;8.50;84.80;;;;;;4376523;32;37331;-78
2021/03/11 22:46:33;;;;;;;;;;;8.50;84.80;;;;;;4390716;32;20392;-78
2021/03/11 22:49:03;;;;;;;;;;;8.40;84.80;;;;;;4377236;32;28889;-78
2021/03/11 22:51:33;;;;;;;;;;;8.40;84.80;;;;;;4389638;32;25124;-77
2021/03/11 22:54:00;;;;;;;;;;;8.40;84.90;;;;;;4389885;32;20419;-78
2021/03/11 22:56:29;;;;;;;;;;;8.40;85.10;;;;;;4389408;32;20016;-78
2021/03/11 22:58:56;;;;;;;;;;;8.40;85.20;;;;;;4390264;32;21882;-78
2021/03/11 23:01:22;;;;;;;;;;;8.40;85.20;;;;;;4390741;32;40399;-79
2021/03/11 23:03:49;;;;;;;;;;;8.40;85.20;;;;;;4391834;32;28862;-79
2021/03/11 23:06:16;;;;;;;;;;;8.40;85.30;;;;;;4406757;32;31286;-78
2021/03/11 23:08:43;;;;;;;;;;;8.30;85.20;;;;;;4382270;32;26704;-78
2021/03/11 23:11:11;;;;;;;;;;;8.30;85.30;;;;;;4408075;32;36948;-78
2021/03/11 23:13:43;;;;;;;;;;;8.30;85.30;;;;;;4408946;32;20479;-78
2021/03/11 23:16:10;;;;;;;;;;;8.30;85.30;;;;;;4382920;32;19993;-78
2021/03/11 23:18:38;;;;;;;;;;;8.30;85.20;;;;;;4381556;32;37253;-78
2021/03/11 23:21:08;;;;;;;;;;;8.30;85.20;;;;;;4395493;32;20052;-78
2021/03/11 23:23:36;;;;;;;;;;;8.30;85.30;;;;;;4409211;32;20021;-78
2021/03/11 23:26:04;;;;;;;;;;;8.20;85.10;;;;;;4395215;32;20026;-78
2021/03/11 23:28:31;;;;;;;;;;;8.20;85.30;;;;;;4409264;32;20004;-79
2021/03/11 23:31:01;;;;;;;;;;;8.20;85.20;;;;;;4409237;32;20393;-79
2021/03/11 23:33:28;;;;;;;;;;;8.10;85.00;;;;;;4382774;32;20064;-79
2021/03/11 23:35:58;;;;;;;;;;;8.10;85.00;;;;;;4408673;32;20082;-79
2021/03/11 23:38:25;;;;;;;;;;;8.10;85.00;;;;;;4381683;32;29431;-79
2021/03/11 23:40:55;;;;;;;;;;;8.10;85.00;;;;;;4382751;32;19992;-79
2021/03/11 23:43:23;;;;;;;;;;;8.10;84.90;;;;;;4394472;32;22189;-78
2021/03/11 23:45:52;;;;;;;;;;;8.10;85.00;;;;;;4393994;32;38592;-79
2021/03/11 23:48:19;;;;;;;;;;;8.00;85.00;;;;;;4395370;32;20018;-78
2021/03/11 23:50:58;;;;;;;;;;;8.00;85.10;;;;;;4382046;32;22694;-78
2021/03/11 23:53:25;;;;;;;;;;;8.00;85.00;;;;;;4408534;32;20011;-78
2021/03/11 23:55:53;;;;;;;;;;;8.10;85.10;;;;;;4381273;32;33879;-78
2021/03/11 23:58:21;;;;;;;;;;;8.10;85.00;;;;;;4381466;32;36923;-78
